sensor_id;sensor_type;location;lat;lon;timestamp;P1;durP1;ratioP1;P2;durP2;ratioP2
28760;SDS011;15917;50.014;8.352;2023-08-06T00:00:05;4.97;;;2.97;;
28760;SDS011;15917;50.014;8.352;2023-08-06T00:02:34;4.70;;;2.90;;
28760;SDS011;15917;50.014;8.352;2023-08-06T00:04:59;5.72;;;3.00;;
28760;SDS011;15917;50.014;8.352;2023-08-06T00:07:25;4.07;;;2.80;;
28760;SDS011;15917;50.014;8.352;2023-08-06T00:09:50;5.45;;;3.08;;
28760;SDS011;15917;50.014;8.352;2023-08-06T00:12:16;7.70;;;2.75;;
28760;SDS011;15917;50.014;8.352;2023-08-06T00:14:42;3.28;;;2.50;;
28760;SDS011;15917;50.014;8.352;2023-08-06T00:17:07;5.80;;;3.05;;
28760;SDS011;15917;50.014;8.352;2023-08-06T00:19:33;5.72;;;3.00;;
28760;SDS011;15917;50.014;8.352;2023-08-06T00:21:59;6.80;;;3.03;;
28760;SDS011;15917;50.014;8.352;2023-08-06T00:24:24;5.78;;;3.40;;
28760;SDS011;15917;50.014;8.352;2023-08-06T00:26:50;11.43;;;3.65;;
28760;SDS011;15917;50.014;8.352;2023-08-06T00:29:15;8.23;;;3.47;;
28760;SDS011;15917;50.014;8.352;2023-08-06T00:31:41;7.13;;;3.35;;
28760;SDS011;15917;50.014;8.352;2023-08-06T00:34:06;6.78;;;3.50;;
28760;SDS011;15917;50.014;8.352;2023-08-06T00:36:32;6.18;;;3.80;;
28760;SDS011;15917;50.014;8.352;2023-08-06T00:38:58;12.70;;;3.75;;
28760;SDS011;15917;50.014;8.352;2023-08-06T00:41:23;7.75;;;3.83;;
28760;SDS011;15917;50.014;8.352;2023-08-06T00:43:49;5.18;;;3.60;;
28760;SDS011;15917;50.014;8.352;2023-08-06T00:46:14;5.78;;;3.75;;
28760;SDS011;15917;50.014;8.352;2023-08-06T00:48:40;7.70;;;3.83;;
28760;SDS011;15917;50.014;8.352;2023-08-06T00:51:09;5.78;;;3.72;;
28760;SDS011;15917;50.014;8.352;2023-08-06T00:53:36;4.50;;;3.10;;
28760;SDS011;15917;50.014;8.352;2023-08-06T00:56:03;10.38;;;4.03;;
28760;SDS011;15917;50.014;8.352;2023-08-06T00:58:28;7.95;;;4.03;;
28760;SDS011;15917;50.014;8.352;2023-08-06T01:00:55;6.25;;;3.53;;
28760;SDS011;15917;50.014;8.352;2023-08-06T01:03:20;9.57;;;3.53;;
28760;SDS011;15917;50.014;8.352;2023-08-06T01:05:47;5.45;;;3.53;;
28760;SDS011;15917;50.014;8.352;2023-08-06T01:08:30;5.90;;;3.53;;
28760;SDS011;15917;50.014;8.352;2023-08-06T01:11:14;5.45;;;3.20;;
28760;SDS011;15917;50.014;8.352;2023-08-06T01:14:08;6.10;;;3.42;;
28760;SDS011;15917;50.014;8.352;2023-08-06T01:16:40;8.25;;;3.08;;
28760;SDS011;15917;50.014;8.352;2023-08-06T01:19:19;7.07;;;3.40;;
28760;SDS011;15917;50.014;8.352;2023-08-06T01:21:45;9.73;;;3.53;;
28760;SDS011;15917;50.014;8.352;2023-08-06T01:24:11;7.97;;;3.67;;
28760;SDS011;15917;50.014;8.352;2023-08-06T01:26:48;5.88;;;3.30;;
28760;SDS011;15917;50.014;8.352;2023-08-06T01:29:39;9.73;;;3.97;;
28760;SDS011;15917;50.014;8.352;2023-08-06T01:32:10;9.02;;;4.60;;
28760;SDS011;15917;50.014;8.352;2023-08-06T01:34:37;4.72;;;3.83;;
28760;SDS011;15917;50.014;8.352;2023-08-06T01:37:05;10.68;;;3.95;;
28760;SDS011;15917;50.014;8.352;2023-08-06T01:39:33;9.88;;;4.28;;
28760;SDS011;15917;50.014;8.352;2023-08-06T01:42:02;13.00;;;5.22;;
28760;SDS011;15917;50.014;8.352;2023-08-06T01:44:28;6.53;;;3.55;;
28760;SDS011;15917;50.014;8.352;2023-08-06T01:46:54;7.05;;;4.32;;
28760;SDS011;15917;50.014;8.352;2023-08-06T01:49:20;7.20;;;3.92;;
28760;SDS011;15917;50.014;8.352;2023-08-06T01:51:46;9.38;;;3.47;;
28760;SDS011;15917;50.014;8.352;2023-08-06T01:54:11;7.25;;;4.32;;
28760;SDS011;15917;50.014;8.352;2023-08-06T01:56:37;9.07;;;5.05;;
28760;SDS011;15917;50.014;8.352;2023-08-06T01:59:03;11.82;;;5.55;;
28760;SDS011;15917;50.014;8.352;2023-08-06T02:01:28;10.95;;;4.72;;
28760;SDS011;15917;50.014;8.352;2023-08-06T02:03:54;9.95;;;4.35;;
28760;SDS011;15917;50.014;8.352;2023-08-06T02:06:20;7.82;;;5.05;;
28760;SDS011;15917;50.014;8.352;2023-08-06T02:08:45;14.32;;;5.20;;
28760;SDS011;15917;50.014;8.352;2023-08-06T02:11:13;9.15;;;4.97;;
28760;SDS011;15917;50.014;8.352;2023-08-06T02:13:39;6.90;;;4.97;;
28760;SDS011;15917;50.014;8.352;2023-08-06T02:16:06;8.57;;;4.78;;
28760;SDS011;15917;50.014;8.352;2023-08-06T02:18:34;10.05;;;4.43;;
28760;SDS011;15917;50.014;8.352;2023-08-06T02:21:00;16.65;;;5.50;;
28760;SDS011;15917;50.014;8.352;2023-08-06T02:23:27;11.18;;;4.85;;
28760;SDS011;15917;50.014;8.352;2023-08-06T02:25:57;12.50;;;4.93;;
28760;SDS011;15917;50.014;8.352;2023-08-06T02:28:24;8.32;;;5.13;;
28760;SDS011;15917;50.014;8.352;2023-08-06T02:30:50;10.25;;;5.25;;
28760;SDS011;15917;50.014;8.352;2023-08-06T02:33:16;11.70;;;4.38;;
28760;SDS011;15917;50.014;8.352;2023-08-06T02:35:41;8.63;;;5.35;;
28760;SDS011;15917;50.014;8.352;2023-08-06T02:38:07;7.82;;;4.43;;
28760;SDS011;15917;50.014;8.352;2023-08-06T02:40:33;9.32;;;4.93;;
28760;SDS011;15917;50.014;8.352;2023-08-06T02:42:58;9.43;;;5.45;;
28760;SDS011;15917;50.014;8.352;2023-08-06T02:45:24;7.80;;;4.32;;
28760;SDS011;15917;50.014;8.352;2023-08-06T02:47:49;8.82;;;4.10;;
28760;SDS011;15917;50.014;8.352;2023-08-06T02:50:15;9.23;;;5.15;;
28760;SDS011;15917;50.014;8.352;2023-08-06T02:52:41;8.10;;;4.03;;
28760;SDS011;15917;50.014;8.352;2023-08-06T02:55:07;13.80;;;4.57;;
28760;SDS011;15917;50.014;8.352;2023-08-06T02:57:34;8.90;;;4.03;;
28760;SDS011;15917;50.014;8.352;2023-08-06T03:00:00;12.93;;;4.32;;
28760;SDS011;15917;50.014;8.352;2023-08-06T03:02:26;9.80;;;4.50;;
28760;SDS011;15917;50.014;8.352;2023-08-06T03:05:09;6.82;;;3.60;;
28760;SDS011;15917;50.014;8.352;2023-08-06T03:07:41;8.50;;;3.95;;
28760;SDS011;15917;50.014;8.352;2023-08-06T03:10:15;6.78;;;4.07;;
28760;SDS011;15917;50.014;8.352;2023-08-06T03:12:42;8.27;;;4.07;;
28760;SDS011;15917;50.014;8.352;2023-08-06T03:15:08;7.05;;;4.00;;
28760;SDS011;15917;50.014;8.352;2023-08-06T03:17:34;8.35;;;4.05;;
28760;SDS011;15917;50.014;8.352;2023-08-06T03:20:02;7.40;;;4.28;;
28760;SDS011;15917;50.014;8.352;2023-08-06T03:22:30;5.75;;;3.25;;
28760;SDS011;15917;50.014;8.352;2023-08-06T03:24:55;6.60;;;3.50;;
28760;SDS011;15917;50.014;8.352;2023-08-06T03:27:24;9.10;;;3.88;;
28760;SDS011;15917;50.014;8.352;2023-08-06T03:29:50;4.75;;;3.50;;
28760;SDS011;15917;50.014;8.352;2023-08-06T03:32:19;6.40;;;2.78;;
28760;SDS011;15917;50.014;8.352;2023-08-06T03:34:45;7.07;;;2.67;;
28760;SDS011;15917;50.014;8.352;2023-08-06T03:37:10;7.35;;;3.08;;
28760;SDS011;15917;50.014;8.352;2023-08-06T03:39:36;7.35;;;2.65;;
28760;SDS011;15917;50.014;8.352;2023-08-06T03:42:02;10.07;;;3.30;;
28760;SDS011;15917;50.014;8.352;2023-08-06T03:44:28;6.25;;;2.85;;
28760;SDS011;15917;50.014;8.352;2023-08-06T03:46:54;7.55;;;3.03;;
28760;SDS011;15917;50.014;8.352;2023-08-06T03:49:20;7.68;;;2.67;;
28760;SDS011;15917;50.014;8.352;2023-08-06T03:51:46;8.32;;;2.92;;
28760;SDS011;15917;50.014;8.352;2023-08-06T03:54:12;9.25;;;2.63;;
28760;SDS011;15917;50.014;8.352;2023-08-06T03:56:37;5.50;;;3.00;;
28760;SDS011;15917;50.014;8.352;2023-08-06T03:59:03;8.00;;;2.25;;
28760;SDS011;15917;50.014;8.352;2023-08-06T04:01:29;6.28;;;2.55;;
28760;SDS011;15917;50.014;8.352;2023-08-06T04:03:55;6.57;;;2.47;;
28760;SDS011;15917;50.014;8.352;2023-08-06T04:06:21;4.40;;;2.05;;
28760;SDS011;15917;50.014;8.352;2023-08-06T04:08:46;7.10;;;2.08;;
28760;SDS011;15917;50.014;8.352;2023-08-06T04:11:12;6.93;;;1.92;;
28760;SDS011;15917;50.014;8.352;2023-08-06T04:13:43;10.70;;;2.35;;
28760;SDS011;15917;50.014;8.352;2023-08-06T04:16:09;6.03;;;2.38;;
28760;SDS011;15917;50.014;8.352;2023-08-06T04:18:35;5.70;;;2.40;;
28760;SDS011;15917;50.014;8.352;2023-08-06T04:21:01;4.03;;;2.05;;
28760;SDS011;15917;50.014;8.352;2023-08-06T04:23:27;11.23;;;2.15;;
28760;SDS011;15917;50.014;8.352;2023-08-06T04:25:57;7.18;;;1.73;;
28760;SDS011;15917;50.014;8.352;2023-08-06T04:28:25;3.47;;;1.70;;
28760;SDS011;15917;50.014;8.352;2023-08-06T04:30:52;8.43;;;1.80;;
28760;SDS011;15917;50.014;8.352;2023-08-06T04:33:18;3.03;;;1.40;;
28760;SDS011;15917;50.014;8.352;2023-08-06T04:35:46;6.97;;;2.28;;
28760;SDS011;15917;50.014;8.352;2023-08-06T04:38:11;7.80;;;1.63;;
28760;SDS011;15917;50.014;8.352;2023-08-06T04:40:37;7.95;;;2.30;;
28760;SDS011;15917;50.014;8.352;2023-08-06T04:43:03;12.65;;;2.33;;
28760;SDS011;15917;50.014;8.352;2023-08-06T04:45:32;3.33;;;1.33;;
28760;SDS011;15917;50.014;8.352;2023-08-06T04:47:58;5.30;;;1.77;;
28760;SDS011;15917;50.014;8.352;2023-08-06T04:50:23;2.42;;;1.13;;
28760;SDS011;15917;50.014;8.352;2023-08-06T04:52:49;5.70;;;1.38;;
28760;SDS011;15917;50.014;8.352;2023-08-06T04:55:14;1.35;;;0.70;;
28760;SDS011;15917;50.014;8.352;2023-08-06T04:57:40;7.22;;;1.48;;
28760;SDS011;15917;50.014;8.352;2023-08-06T05:00:07;4.22;;;1.30;;
28760;SDS011;15917;50.014;8.352;2023-08-06T05:02:33;4.80;;;1.20;;
28760;SDS011;15917;50.014;8.352;2023-08-06T05:04:59;2.85;;;1.00;;
28760;SDS011;15917;50.014;8.352;2023-08-06T05:07:25;7.82;;;0.98;;
28760;SDS011;15917;50.014;8.352;2023-08-06T05:09:50;2.00;;;0.88;;
28760;SDS011;15917;50.014;8.352;2023-08-06T05:12:16;2.78;;;0.82;;
28760;SDS011;15917;50.014;8.352;2023-08-06T05:14:42;2.05;;;0.90;;
28760;SDS011;15917;50.014;8.352;2023-08-06T05:17:07;3.92;;;1.10;;
28760;SDS011;15917;50.014;8.352;2023-08-06T05:19:33;4.90;;;1.10;;
28760;SDS011;15917;50.014;8.352;2023-08-06T05:21:59;4.95;;;1.10;;
28760;SDS011;15917;50.014;8.352;2023-08-06T05:24:26;6.75;;;1.60;;
28760;SDS011;15917;50.014;8.352;2023-08-06T05:26:51;1.40;;;1.10;;
28760;SDS011;15917;50.014;8.352;2023-08-06T05:29:17;4.25;;;1.52;;
28760;SDS011;15917;50.014;8.352;2023-08-06T05:31:42;8.65;;;1.40;;
28760;SDS011;15917;50.014;8.352;2023-08-06T05:34:08;5.20;;;1.55;;
28760;SDS011;15917;50.014;8.352;2023-08-06T05:36:34;8.55;;;1.60;;
28760;SDS011;15917;50.014;8.352;2023-08-06T05:38:59;5.88;;;1.65;;
28760;SDS011;15917;50.014;8.352;2023-08-06T05:41:25;3.03;;;1.08;;
28760;SDS011;15917;50.014;8.352;2023-08-06T05:43:50;4.18;;;1.20;;
28760;SDS011;15917;50.014;8.352;2023-08-06T05:46:16;2.63;;;1.30;;
28760;SDS011;15917;50.014;8.352;2023-08-06T05:48:42;4.97;;;1.40;;
28760;SDS011;15917;50.014;8.352;2023-08-06T05:51:07;5.32;;;1.10;;
28760;SDS011;15917;50.014;8.352;2023-08-06T05:53:33;1.67;;;1.10;;
28760;SDS011;15917;50.014;8.352;2023-08-06T05:55:58;5.13;;;1.20;;
28760;SDS011;15917;50.014;8.352;2023-08-06T05:58:24;6.45;;;0.98;;
28760;SDS011;15917;50.014;8.352;2023-08-06T06:00:51;1.48;;;0.82;;
28760;SDS011;15917;50.014;8.352;2023-08-06T06:03:17;3.70;;;0.95;;
28760;SDS011;15917;50.014;8.352;2023-08-06T06:05:42;0.85;;;0.77;;
28760;SDS011;15917;50.014;8.352;2023-08-06T06:08:08;1.45;;;0.90;;
28760;SDS011;15917;50.014;8.352;2023-08-06T06:10:34;3.42;;;0.75;;
28760;SDS011;15917;50.014;8.352;2023-08-06T06:13:00;3.05;;;0.90;;
28760;SDS011;15917;50.014;8.352;2023-08-06T06:15:26;7.65;;;1.27;;
28760;SDS011;15917;50.014;8.352;2023-08-06T06:17:51;1.20;;;0.70;;
28760;SDS011;15917;50.014;8.352;2023-08-06T06:20:17;4.15;;;0.50;;
28760;SDS011;15917;50.014;8.352;2023-08-06T06:22:43;3.35;;;0.52;;
28760;SDS011;15917;50.014;8.352;2023-08-06T06:25:08;1.65;;;0.40;;
28760;SDS011;15917;50.014;8.352;2023-08-06T06:27:35;1.27;;;0.40;;
28760;SDS011;15917;50.014;8.352;2023-08-06T06:30:01;1.15;;;0.52;;
28760;SDS011;15917;50.014;8.352;2023-08-06T06:32:27;1.08;;;0.50;;
28760;SDS011;15917;50.014;8.352;2023-08-06T06:34:52;2.05;;;0.38;;
28760;SDS011;15917;50.014;8.352;2023-08-06T06:37:19;0.82;;;0.52;;
28760;SDS011;15917;50.014;8.352;2023-08-06T06:39:45;11.93;;;0.85;;
28760;SDS011;15917;50.014;8.352;2023-08-06T06:42:10;1.23;;;0.50;;
28760;SDS011;15917;50.014;8.352;2023-08-06T06:44:42;1.85;;;0.40;;
28760;SDS011;15917;50.014;8.352;2023-08-06T06:47:07;0.45;;;0.30;;
28760;SDS011;15917;50.014;8.352;2023-08-06T06:49:33;0.25;;;0.25;;
28760;SDS011;15917;50.014;8.352;2023-08-06T06:51:59;0.50;;;0.50;;
28760;SDS011;15917;50.014;8.352;2023-08-06T06:54:24;2.05;;;0.47;;
28760;SDS011;15917;50.014;8.352;2023-08-06T06:56:50;5.38;;;0.63;;
28760;SDS011;15917;50.014;8.352;2023-08-06T06:59:15;0.73;;;0.55;;
28760;SDS011;15917;50.014;8.352;2023-08-06T07:01:41;1.92;;;0.57;;
28760;SDS011;15917;50.014;8.352;2023-08-06T07:04:06;0.73;;;0.50;;
28760;SDS011;15917;50.014;8.352;2023-08-06T07:06:32;1.98;;;0.30;;
28760;SDS011;15917;50.014;8.352;2023-08-06T07:08:58;2.50;;;0.50;;
28760;SDS011;15917;50.014;8.352;2023-08-06T07:11:23;0.75;;;0.50;;
28760;SDS011;15917;50.014;8.352;2023-08-06T07:13:58;5.25;;;0.63;;
28760;SDS011;15917;50.014;8.352;2023-08-06T07:16:24;0.60;;;0.43;;
28760;SDS011;15917;50.014;8.352;2023-08-06T07:18:51;0.93;;;0.50;;
28760;SDS011;15917;50.014;8.352;2023-08-06T07:21:18;2.72;;;1.55;;
28760;SDS011;15917;50.014;8.352;2023-08-06T07:23:43;0.77;;;0.40;;
28760;SDS011;15917;50.014;8.352;2023-08-06T07:26:09;2.25;;;0.50;;
28760;SDS011;15917;50.014;8.352;2023-08-06T07:28:34;5.70;;;0.75;;
28760;SDS011;15917;50.014;8.352;2023-08-06T07:31:00;2.05;;;0.60;;
28760;SDS011;15917;50.014;8.352;2023-08-06T07:35:54;4.82;;;0.75;;
28760;SDS011;15917;50.014;8.352;2023-08-06T07:38:19;0.70;;;0.40;;
28760;SDS011;15917;50.014;8.352;2023-08-06T07:40:45;1.00;;;0.50;;
28760;SDS011;15917;50.014;8.352;2023-08-06T07:43:10;1.67;;;0.55;;
28760;SDS011;15917;50.014;8.352;2023-08-06T07:45:36;5.13;;;0.40;;
28760;SDS011;15917;50.014;8.352;2023-08-06T07:48:02;0.80;;;0.30;;
28760;SDS011;15917;50.014;8.352;2023-08-06T07:50:28;0.63;;;0.30;;
28760;SDS011;15917;50.014;8.352;2023-08-06T07:52:54;0.82;;;0.35;;
28760;SDS011;15917;50.014;8.352;2023-08-06T07:55:20;0.17;;;0.17;;
28760;SDS011;15917;50.014;8.352;2023-08-06T07:57:45;1.02;;;0.60;;
28760;SDS011;15917;50.014;8.352;2023-08-06T08:00:11;1.55;;;0.43;;
28760;SDS011;15917;50.014;8.352;2023-08-06T08:02:40;0.28;;;0.28;;
28760;SDS011;15917;50.014;8.352;2023-08-06T08:05:05;0.52;;;0.45;;
28760;SDS011;15917;50.014;8.352;2023-08-06T08:07:33;1.35;;;0.55;;
28760;SDS011;15917;50.014;8.352;2023-08-06T08:09:59;0.57;;;0.40;;
28760;SDS011;15917;50.014;8.352;2023-08-06T08:12:24;1.00;;;0.45;;
28760;SDS011;15917;50.014;8.352;2023-08-06T08:14:50;1.23;;;0.20;;
28760;SDS011;15917;50.014;8.352;2023-08-06T08:17:15;0.77;;;0.47;;
28760;SDS011;15917;50.014;8.352;2023-08-06T08:19:41;0.70;;;0.30;;
28760;SDS011;15917;50.014;8.352;2023-08-06T08:22:07;2.25;;;0.35;;
28760;SDS011;15917;50.014;8.352;2023-08-06T08:24:33;2.78;;;0.50;;
28760;SDS011;15917;50.014;8.352;2023-08-06T08:26:58;0.63;;;0.43;;
28760;SDS011;15917;50.014;8.352;2023-08-06T08:29:24;0.35;;;0.30;;
28760;SDS011;15917;50.014;8.352;2023-08-06T08:31:50;2.10;;;1.15;;
28760;SDS011;15917;50.014;8.352;2023-08-06T08:34:16;0.77;;;0.47;;
28760;SDS011;15917;50.014;8.352;2023-08-06T08:36:42;2.30;;;0.20;;
28760;SDS011;15917;50.014;8.352;2023-08-06T08:39:08;0.55;;;0.40;;
28760;SDS011;15917;50.014;8.352;2023-08-06T08:41:34;0.60;;;0.40;;
28760;SDS011;15917;50.014;8.352;2023-08-06T08:44:01;1.42;;;0.40;;
28760;SDS011;15917;50.014;8.352;2023-08-06T08:46:29;0.22;;;0.22;;
28760;SDS011;15917;50.014;8.352;2023-08-06T08:48:56;0.95;;;0.52;;
28760;SDS011;15917;50.014;8.352;2023-08-06T08:51:24;3.30;;;0.50;;
28760;SDS011;15917;50.014;8.352;2023-08-06T08:56:18;2.10;;;0.40;;
28760;SDS011;15917;50.014;8.352;2023-08-06T08:58:44;9.85;;;0.60;;
28760;SDS011;15917;50.014;8.352;2023-08-06T09:01:10;1.15;;;0.60;;
28760;SDS011;15917;50.014;8.352;2023-08-06T09:03:36;1.17;;;0.52;;
28760;SDS011;15917;50.014;8.352;2023-08-06T09:06:02;9.52;;;0.82;;
28760;SDS011;15917;50.014;8.352;2023-08-06T09:08:31;4.85;;;0.50;;
28760;SDS011;15917;50.014;8.352;2023-08-06T09:11:01;3.05;;;0.50;;
28760;SDS011;15917;50.014;8.352;2023-08-06T09:13:29;1.08;;;0.40;;
28760;SDS011;15917;50.014;8.352;2023-08-06T09:15:55;0.40;;;0.30;;
28760;SDS011;15917;50.014;8.352;2023-08-06T09:18:27;2.92;;;0.60;;
28760;SDS011;15917;50.014;8.352;2023-08-06T09:20:54;1.83;;;0.57;;
28760;SDS011;15917;50.014;8.352;2023-08-06T09:23:20;1.00;;;0.47;;
28760;SDS011;15917;50.014;8.352;2023-08-06T09:25:45;2.25;;;0.50;;
28760;SDS011;15917;50.014;8.352;2023-08-06T09:28:12;1.10;;;0.50;;
28760;SDS011;15917;50.014;8.352;2023-08-06T09:30:37;0.68;;;0.30;;
28760;SDS011;15917;50.014;8.352;2023-08-06T09:33:04;0.70;;;0.30;;
28760;SDS011;15917;50.014;8.352;2023-08-06T09:35:35;2.22;;;0.45;;
28760;SDS011;15917;50.014;8.352;2023-08-06T09:38:07;1.02;;;0.32;;
28760;SDS011;15917;50.014;8.352;2023-08-06T09:40:35;2.72;;;0.45;;
28760;SDS011;15917;50.014;8.352;2023-08-06T09:43:01;0.77;;;0.40;;
28760;SDS011;15917;50.014;8.352;2023-08-06T09:45:30;1.40;;;0.60;;
28760;SDS011;15917;50.014;8.352;2023-08-06T09:47:57;2.72;;;0.30;;
28760;SDS011;15917;50.014;8.352;2023-08-06T09:50:28;4.13;;;0.50;;
28760;SDS011;15917;50.014;8.352;2023-08-06T09:52:56;0.73;;;0.68;;
28760;SDS011;15917;50.014;8.352;2023-08-06T09:55:23;0.93;;;0.40;;
28760;SDS011;15917;50.014;8.352;2023-08-06T09:57:51;1.30;;;0.30;;
28760;SDS011;15917;50.014;8.352;2023-08-06T10:00:17;3.83;;;0.90;;
28760;SDS011;15917;50.014;8.352;2023-08-06T10:02:45;0.40;;;0.40;;
28760;SDS011;15917;50.014;8.352;2023-08-06T10:05:11;1.23;;;0.60;;
28760;SDS011;15917;50.014;8.352;2023-08-06T10:07:37;0.60;;;0.40;;
28760;SDS011;15917;50.014;8.352;2023-08-06T10:10:06;1.02;;;0.43;;
28760;SDS011;15917;50.014;8.352;2023-08-06T10:12:52;0.20;;;0.20;;
28760;SDS011;15917;50.014;8.352;2023-08-06T10:15:21;2.55;;;1.02;;
28760;SDS011;15917;50.014;8.352;2023-08-06T10:17:54;2.20;;;0.30;;
28760;SDS011;15917;50.014;8.352;2023-08-06T10:20:21;0.80;;;0.40;;
28760;SDS011;15917;50.014;8.352;2023-08-06T10:23:03;1.23;;;0.20;;
28760;SDS011;15917;50.014;8.352;2023-08-06T10:25:31;0.20;;;0.20;;
28760;SDS011;15917;50.014;8.352;2023-08-06T10:27:57;0.40;;;0.30;;
28760;SDS011;15917;50.014;8.352;2023-08-06T10:30:30;1.25;;;0.28;;
28760;SDS011;15917;50.014;8.352;2023-08-06T10:33:00;0.98;;;0.20;;
28760;SDS011;15917;50.014;8.352;2023-08-06T10:35:28;0.47;;;0.15;;
28760;SDS011;15917;50.014;8.352;2023-08-06T10:37:58;0.25;;;0.25;;
28760;SDS011;15917;50.014;8.352;2023-08-06T10:40:36;0.20;;;0.20;;
28760;SDS011;15917;50.014;8.352;2023-08-06T10:43:04;0.10;;;0.10;;
28760;SDS011;15917;50.014;8.352;2023-08-06T10:45:34;2.88;;;0.30;;
28760;SDS011;15917;50.014;8.352;2023-08-06T10:48:00;2.75;;;0.30;;
28760;SDS011;15917;50.014;8.352;2023-08-06T10:50:25;0.40;;;0.20;;
28760;SDS011;15917;50.014;8.352;2023-08-06T10:52:51;3.30;;;0.35;;
28760;SDS011;15917;50.014;8.352;2023-08-06T10:55:27;0.35;;;0.35;;
28760;SDS011;15917;50.014;8.352;2023-08-06T10:57:54;2.83;;;0.30;;
28760;SDS011;15917;50.014;8.352;2023-08-06T11:00:21;0.38;;;0.30;;
28760;SDS011;15917;50.014;8.352;2023-08-06T11:05:22;0.75;;;0.30;;
28760;SDS011;15917;50.014;8.352;2023-08-06T11:07:48;0.63;;;0.30;;
28760;SDS011;15917;50.014;8.352;2023-08-06T11:10:14;3.75;;;0.43;;
28760;SDS011;15917;50.014;8.352;2023-08-06T11:12:40;0.55;;;0.30;;
28760;SDS011;15917;50.014;8.352;2023-08-06T11:15:05;2.38;;;0.30;;
28760;SDS011;15917;50.014;8.352;2023-08-06T11:17:32;3.70;;;0.60;;
28760;SDS011;15917;50.014;8.352;2023-08-06T11:19:59;7.07;;;0.70;;
28760;SDS011;15917;50.014;8.352;2023-08-06T11:22:26;6.20;;;0.77;;
28760;SDS011;15917;50.014;8.352;2023-08-06T11:24:52;1.23;;;0.50;;
28760;SDS011;15917;50.014;8.352;2023-08-06T11:27:19;1.67;;;0.25;;
28760;SDS011;15917;50.014;8.352;2023-08-06T11:29:45;1.08;;;0.70;;
28760;SDS011;15917;50.014;8.352;2023-08-06T11:32:11;3.50;;;0.60;;
28760;SDS011;15917;50.014;8.352;2023-08-06T11:34:37;7.68;;;0.93;;
28760;SDS011;15917;50.014;8.352;2023-08-06T11:37:04;0.50;;;0.15;;
28760;SDS011;15917;50.014;8.352;2023-08-06T11:39:34;0.95;;;0.10;;
28760;SDS011;15917;50.014;8.352;2023-08-06T11:42:02;0.68;;;0.20;;
28760;SDS011;15917;50.014;8.352;2023-08-06T11:44:32;0.88;;;0.28;;
28760;SDS011;15917;50.014;8.352;2023-08-06T11:47:00;0.57;;;0.20;;
28760;SDS011;15917;50.014;8.352;2023-08-06T11:52:10;0.73;;;0.40;;
28760;SDS011;15917;50.014;8.352;2023-08-06T11:54:39;0.93;;;0.45;;
28760;SDS011;15917;50.014;8.352;2023-08-06T11:57:05;5.22;;;0.47;;
28760;SDS011;15917;50.014;8.352;2023-08-06T11:59:31;1.42;;;0.70;;
28760;SDS011;15917;50.014;8.352;2023-08-06T12:01:57;3.17;;;0.63;;
28760;SDS011;15917;50.014;8.352;2023-08-06T12:07:51;1.60;;;0.70;;
28760;SDS011;15917;50.014;8.352;2023-08-06T12:10:18;6.18;;;0.50;;
28760;SDS011;15917;50.014;8.352;2023-08-06T12:12:50;1.75;;;0.52;;
28760;SDS011;15917;50.014;8.352;2023-08-06T12:15:16;1.75;;;0.45;;
28760;SDS011;15917;50.014;8.352;2023-08-06T12:17:41;1.48;;;0.50;;
28760;SDS011;15917;50.014;8.352;2023-08-06T12:20:07;0.63;;;0.45;;
28760;SDS011;15917;50.014;8.352;2023-08-06T12:22:33;0.20;;;0.20;;
28760;SDS011;15917;50.014;8.352;2023-08-06T12:25:07;0.80;;;0.47;;
28760;SDS011;15917;50.014;8.352;2023-08-06T12:27:43;1.10;;;0.35;;
28760;SDS011;15917;50.014;8.352;2023-08-06T12:30:13;2.97;;;0.50;;
28760;SDS011;15917;50.014;8.352;2023-08-06T12:32:39;0.82;;;0.40;;
28760;SDS011;15917;50.014;8.352;2023-08-06T12:35:05;1.67;;;1.15;;
28760;SDS011;15917;50.014;8.352;2023-08-06T12:37:32;2.22;;;0.60;;
28760;SDS011;15917;50.014;8.352;2023-08-06T12:39:58;0.98;;;0.47;;
28760;SDS011;15917;50.014;8.352;2023-08-06T12:42:23;2.58;;;0.70;;
28760;SDS011;15917;50.014;8.352;2023-08-06T12:44:49;2.13;;;0.95;;
28760;SDS011;15917;50.014;8.352;2023-08-06T12:47:15;2.75;;;0.80;;
28760;SDS011;15917;50.014;8.352;2023-08-06T12:49:41;2.28;;;0.80;;
28760;SDS011;15917;50.014;8.352;2023-08-06T12:52:07;2.85;;;0.80;;
28760;SDS011;15917;50.014;8.352;2023-08-06T12:54:34;1.95;;;0.57;;
28760;SDS011;15917;50.014;8.352;2023-08-06T12:57:03;4.68;;;0.70;;
28760;SDS011;15917;50.014;8.352;2023-08-06T12:59:29;1.88;;;0.60;;
28760;SDS011;15917;50.014;8.352;2023-08-06T13:01:56;1.70;;;0.50;;
28760;SDS011;15917;50.014;8.352;2023-08-06T13:04:21;0.65;;;0.40;;
28760;SDS011;15917;50.014;8.352;2023-08-06T13:06:47;1.52;;;0.65;;
28760;SDS011;15917;50.014;8.352;2023-08-06T13:09:13;1.35;;;0.47;;
28760;SDS011;15917;50.014;8.352;2023-08-06T13:11:39;4.90;;;0.65;;
28760;SDS011;15917;50.014;8.352;2023-08-06T13:16:31;2.22;;;0.40;;
28760;SDS011;15917;50.014;8.352;2023-08-06T13:18:57;2.05;;;0.60;;
28760;SDS011;15917;50.014;8.352;2023-08-06T13:21:23;1.13;;;0.50;;
28760;SDS011;15917;50.014;8.352;2023-08-06T13:23:48;1.65;;;0.50;;
28760;SDS011;15917;50.014;8.352;2023-08-06T13:26:14;1.10;;;0.40;;
28760;SDS011;15917;50.014;8.352;2023-08-06T13:28:41;2.00;;;0.80;;
28760;SDS011;15917;50.014;8.352;2023-08-06T13:31:06;1.40;;;0.55;;
28760;SDS011;15917;50.014;8.352;2023-08-06T13:33:32;3.13;;;0.95;;
28760;SDS011;15917;50.014;8.352;2023-08-06T13:35:58;18.05;;;2.22;;
28760;SDS011;15917;50.014;8.352;2023-08-06T13:38:23;5.60;;;0.90;;
28760;SDS011;15917;50.014;8.352;2023-08-06T13:40:49;10.23;;;1.10;;
28760;SDS011;15917;50.014;8.352;2023-08-06T13:43:14;4.85;;;0.70;;
28760;SDS011;15917;50.014;8.352;2023-08-06T13:45:42;0.90;;;0.30;;
28760;SDS011;15917;50.014;8.352;2023-08-06T13:48:07;3.38;;;0.38;;
28760;SDS011;15917;50.014;8.352;2023-08-06T13:50:35;4.85;;;0.63;;
28760;SDS011;15917;50.014;8.352;2023-08-06T13:53:02;0.60;;;0.43;;
28760;SDS011;15917;50.014;8.352;2023-08-06T13:55:27;1.85;;;0.50;;
28760;SDS011;15917;50.014;8.352;2023-08-06T13:57:53;2.72;;;0.50;;
28760;SDS011;15917;50.014;8.352;2023-08-06T14:00:19;6.75;;;0.50;;
28760;SDS011;15917;50.014;8.352;2023-08-06T14:02:45;0.20;;;0.20;;
28760;SDS011;15917;50.014;8.352;2023-08-06T14:05:10;4.40;;;0.40;;
28760;SDS011;15917;50.014;8.352;2023-08-06T14:07:36;1.80;;;0.47;;
28760;SDS011;15917;50.014;8.352;2023-08-06T14:10:02;0.47;;;0.20;;
28760;SDS011;15917;50.014;8.352;2023-08-06T14:12:28;1.42;;;0.50;;
28760;SDS011;15917;50.014;8.352;2023-08-06T14:14:54;0.73;;;0.30;;
28760;SDS011;15917;50.014;8.352;2023-08-06T14:17:19;0.13;;;0.13;;
28760;SDS011;15917;50.014;8.352;2023-08-06T14:19:45;1.20;;;0.50;;
28760;SDS011;15917;50.014;8.352;2023-08-06T14:22:10;1.25;;;0.38;;
28760;SDS011;15917;50.014;8.352;2023-08-06T14:24:37;0.73;;;0.35;;
28760;SDS011;15917;50.014;8.352;2023-08-06T14:27:03;0.63;;;0.20;;
28760;SDS011;15917;50.014;8.352;2023-08-06T14:29:31;0.40;;;0.40;;
28760;SDS011;15917;50.014;8.352;2023-08-06T14:31:56;0.15;;;0.10;;
28760;SDS011;15917;50.014;8.352;2023-08-06T14:34:22;0.30;;;0.25;;
28760;SDS011;15917;50.014;8.352;2023-08-06T14:36:48;1.55;;;0.45;;
28760;SDS011;15917;50.014;8.352;2023-08-06T14:39:13;0.10;;;0.10;;
28760;SDS011;15917;50.014;8.352;2023-08-06T14:41:39;1.85;;;0.30;;
28760;SDS011;15917;50.014;8.352;2023-08-06T14:44:05;0.70;;;0.38;;
28760;SDS011;15917;50.014;8.352;2023-08-06T14:46:32;5.90;;;0.75;;
28760;SDS011;15917;50.014;8.352;2023-08-06T14:48:58;1.77;;;0.20;;
28760;SDS011;15917;50.014;8.352;2023-08-06T14:51:23;0.35;;;0.32;;
28760;SDS011;15917;50.014;8.352;2023-08-06T14:53:49;2.65;;;0.40;;
28760;SDS011;15917;50.014;8.352;2023-08-06T14:56:15;0.68;;;0.30;;
28760;SDS011;15917;50.014;8.352;2023-08-06T14:58:40;0.30;;;0.30;;
28760;SDS011;15917;50.014;8.352;2023-08-06T15:01:07;0.20;;;0.20;;